Hlavní strana
METAR-TAF:

METAR-TAF

Letiště :

Ciudad de Panamá, Panama

zeměpisná šířka: 08-59N, zeměpisná délka: 079-31W, výška: 13 m

Aktuální stav počasí

Zpráva byla vytvořena před 1 hodinou a 3 minutami, v 22:00 UTC
Jižní vítr 5 kt, proměnlivý mezi východním a jižním
Teplota 28°C
Vlhkost vzduchu 84%
Tlak 1008 hPa
Viditelnost 10 km a více
Polojasno ve výšce 1800 ft

METAR: MPMG 222200Z 17005KT 090V190 9999 SCT018 28/25 Q1008 NOSIG

Čas: 18:03 (23:03 UTC)

Předpověď počasí

Zpráva byla vytvořena před 6 hodinami a 3 minutami, v 17:00 UTC
Předpověď platná od 22 v 18 UTC do 23 v 06 UTC
Severní vítr 6 kt
Viditelnost 10 km a více
Polojasno ve výšce 1800 ft
Oblačno až skoro zataženo ve výšce 9000 ft
Pravděpodobnost 30% :
Dočasný
od 22 v 19 UTC do 22 v 23 UTC
Jižní vítr 6 kt
Viditelnost: 7000 m
Polojasno ve výšce 1500 ft
Oblačno až skoro zataženo ve výšce 8000 ft
déšť

TAF: MPMG 221700Z 2218/2306 35006KT 9999 SCT018 BKN090 PROB30 TEMPO 2219/2223 18006KT 7000 RA SCT015 BKN080

Stav a předpovědi počasí z více než 4 000 letišť (zprávy METAR a TAF).

Červené a žluté tečky na mapě představují dostupné meteorologické stanice.

Když kurzor umístíte na tečku, zobrazí se název stanice.

Pak kliknutím zobrazíte stav a předpověď počasí.

Chcete-li změnit mapu, kliknutím na zelené tlačítko se znaménkem +mapu přiblížíte, kliknutím na zelené tlačítko se znaménkem – mapu oddálíte a kliknutím na zelené šipky přejdete na sousední mapy.


METAR-TAF: